createdAt,value
2018-09-06T00:00:53.993Z,23.00
2018-09-06T00:02:29.307Z,22.80
2018-09-06T00:04:06.586Z,22.70
2018-09-06T00:05:42.788Z,22.70
2018-09-06T00:07:18.704Z,22.60
2018-09-06T00:08:54.217Z,22.50
2018-09-06T00:10:36.395Z,22.40
2018-09-06T00:12:11.722Z,22.40
2018-09-06T00:13:47.231Z,22.40
2018-09-06T00:15:23.372Z,22.40
2018-09-06T00:16:59.833Z,22.40
2018-09-06T00:18:35.361Z,22.40
2018-09-06T00:20:11.413Z,22.40
2018-09-06T00:21:49.486Z,22.40
2018-09-06T00:23:25.202Z,22.40
2018-09-06T00:25:00.557Z,22.40
2018-09-06T00:26:35.834Z,22.50
2018-09-06T00:28:11.376Z,22.50
2018-09-06T00:29:48.584Z,22.50
2018-09-06T00:31:24.117Z,22.50
2018-09-06T00:32:59.628Z,22.50
2018-09-06T00:34:35.315Z,22.50
2018-09-06T00:36:11.286Z,22.40
2018-09-06T00:37:47.965Z,22.40
2018-09-06T00:39:25.218Z,22.30
2018-09-06T00:41:00.695Z,22.30
2018-09-06T00:42:36.473Z,22.40
2018-09-06T00:44:12.000Z,22.40
2018-09-06T00:45:47.836Z,22.40
2018-09-06T00:47:23.283Z,22.40
2018-09-06T00:48:58.907Z,22.50
2018-09-06T00:50:39.138Z,22.50
2018-09-06T00:52:14.854Z,22.40
2018-09-06T00:53:51.631Z,22.40
2018-09-06T00:55:27.452Z,22.40
2018-09-06T00:57:07.054Z,22.40
2018-09-06T00:58:42.780Z,22.40
2018-09-06T01:00:20.077Z,22.40
2018-09-06T01:01:58.407Z,22.40
2018-09-06T01:03:36.295Z,22.30
2018-09-06T01:05:14.655Z,22.30
2018-09-06T01:06:50.415Z,22.30
2018-09-06T01:08:26.140Z,22.30
2018-09-06T01:10:01.801Z,22.30
2018-09-06T01:11:38.071Z,22.30
2018-09-06T01:13:13.958Z,22.20
2018-09-06T01:14:50.449Z,22.20
2018-09-06T01:16:42.675Z,22.10
2018-09-06T01:18:26.518Z,22.10
2018-09-06T01:20:02.692Z,22.10
2018-09-06T01:21:38.000Z,22.10
2018-09-06T01:23:13.419Z,22.10
2018-09-06T01:24:49.100Z,22.10
2018-09-06T01:26:24.840Z,22.10
2018-09-06T01:28:00.255Z,22.00
2018-09-06T01:29:36.103Z,22.00
2018-09-06T01:31:11.830Z,22.00
2018-09-06T01:32:47.224Z,21.90
2018-09-06T01:34:22.779Z,21.90
2018-09-06T01:36:03.471Z,21.90
2018-09-06T01:37:38.957Z,21.80
2018-09-06T01:39:14.553Z,22.00
2018-09-06T01:40:52.309Z,22.00
2018-09-06T01:42:27.987Z,22.00
2018-09-06T01:44:03.503Z,22.00
2018-09-06T01:45:38.900Z,22.10
2018-09-06T01:47:14.357Z,22.10
2018-09-06T01:48:50.081Z,22.10
2018-09-06T01:50:25.469Z,22.00
2018-09-06T01:52:00.863Z,22.00
2018-09-06T01:53:36.157Z,22.30
2018-09-06T01:55:11.999Z,22.70
2018-09-06T01:56:47.680Z,22.90
2018-09-06T01:58:23.084Z,23.20
2018-09-06T01:59:58.907Z,23.30
2018-09-06T02:01:34.585Z,23.30
2018-09-06T02:03:10.024Z,23.30
2018-09-06T02:04:45.399Z,23.30
2018-09-06T02:06:20.773Z,23.20
2018-09-06T02:07:56.577Z,23.10
2018-09-06T02:09:32.029Z,23.00
2018-09-06T02:11:07.351Z,22.80
2018-09-06T02:12:42.842Z,22.80
2018-09-06T02:14:18.282Z,22.80
2018-09-06T02:15:53.899Z,23.00
2018-09-06T02:17:29.274Z,23.00
2018-09-06T02:19:04.850Z,22.90
2018-09-06T02:20:40.596Z,22.90
2018-09-06T02:22:16.198Z,23.00
2018-09-06T02:23:51.538Z,23.10
2018-09-06T02:25:27.041Z,23.00
2018-09-06T02:27:02.868Z,23.00
2018-09-06T02:28:38.283Z,22.90
2018-09-06T02:30:15.033Z,22.90
2018-09-06T02:31:51.296Z,22.90
2018-09-06T02:33:27.142Z,22.70
2018-09-06T02:35:02.473Z,22.60
2018-09-06T02:36:37.863Z,22.60
2018-09-06T02:38:13.221Z,22.60
2018-09-06T02:39:49.062Z,22.60
2018-09-06T02:41:24.653Z,22.60
2018-09-06T02:43:00.171Z,22.60
2018-09-06T02:44:36.380Z,22.50
2018-09-06T02:46:12.386Z,22.50
2018-09-06T02:47:56.803Z,22.40
2018-09-06T02:49:38.181Z,22.50
2018-09-06T02:51:21.499Z,22.40
2018-09-06T02:52:57.717Z,22.30
2018-09-06T02:54:33.786Z,22.10
2018-09-06T02:56:09.315Z,22.00
2018-09-06T02:57:44.675Z,21.90
2018-09-06T02:59:20.006Z,21.80
2018-09-06T03:00:55.486Z,21.80
2018-09-06T03:02:30.910Z,21.80
2018-09-06T03:04:06.313Z,21.90
2018-09-06T03:05:42.116Z,21.80
2018-09-06T03:07:17.419Z,21.90
2018-09-06T03:08:52.757Z,21.90
2018-09-06T03:10:31.307Z,21.80
2018-09-06T03:12:08.387Z,21.70
2018-09-06T03:13:43.792Z,21.80
2018-09-06T03:15:21.004Z,21.80
2018-09-06T03:16:57.177Z,21.80
2018-09-06T03:18:32.450Z,21.80
2018-09-06T03:20:07.681Z,21.70
2018-09-06T03:21:42.882Z,21.60
2018-09-06T03:23:18.534Z,21.50
2018-09-06T03:24:53.825Z,21.20
2018-09-06T03:26:29.193Z,20.90
2018-09-06T03:28:05.089Z,20.70
2018-09-06T03:29:40.904Z,20.40
2018-09-06T03:31:16.519Z,20.30
2018-09-06T03:32:51.826Z,20.20
2018-09-06T03:34:29.460Z,20.20
2018-09-06T03:36:07.740Z,20.20
2018-09-06T03:37:43.108Z,20.20
2018-09-06T03:39:18.346Z,20.20
2018-09-06T03:40:53.749Z,20.20
2018-09-06T03:42:29.307Z,20.20
2018-09-06T03:44:04.858Z,20.20
2018-09-06T03:45:42.253Z,20.20
2018-09-06T03:47:17.598Z,20.20
2018-09-06T03:48:53.265Z,20.20
2018-09-06T03:50:28.870Z,20.40
2018-09-06T03:52:04.313Z,20.50
2018-09-06T03:53:39.543Z,20.40
2018-09-06T03:55:15.682Z,20.30
2018-09-06T03:56:50.975Z,20.40
2018-09-06T03:58:27.415Z,20.60
2018-09-06T04:00:07.252Z,20.60
2018-09-06T04:01:52.184Z,20.40
2018-09-06T04:03:34.018Z,20.10
2018-09-06T04:05:16.062Z,19.90
2018-09-06T04:06:51.577Z,19.90
2018-09-06T04:08:32.493Z,20.10
2018-09-06T04:10:08.780Z,20.10
2018-09-06T04:11:44.080Z,20.30
2018-09-06T04:13:19.679Z,20.30
2018-09-06T04:14:55.360Z,20.40
2018-09-06T04:16:31.178Z,20.40
2018-09-06T04:18:06.463Z,20.20
2018-09-06T04:19:42.092Z,20.00
2018-09-06T04:21:17.302Z,19.80
2018-09-06T04:22:53.719Z,19.60
2018-09-06T04:24:29.022Z,19.50
2018-09-06T04:26:05.407Z,19.50
2018-09-06T04:27:40.704Z,19.50
2018-09-06T04:29:15.929Z,19.40
2018-09-06T04:30:51.321Z,19.30
2018-09-06T04:32:26.853Z,19.30
2018-09-06T04:34:02.095Z,19.40
2018-09-06T04:35:39.174Z,19.40
2018-09-06T04:37:15.046Z,19.50
2018-09-06T04:38:54.248Z,19.50
2018-09-06T04:40:29.459Z,19.70
2018-09-06T04:42:04.694Z,19.70
2018-09-06T04:43:41.248Z,19.60
2018-09-06T04:45:19.121Z,19.60
2018-09-06T04:46:54.602Z,19.60
2018-09-06T04:48:30.224Z,19.90
2018-09-06T04:50:05.834Z,20.20
2018-09-06T04:51:41.811Z,20.50
2018-09-06T04:53:17.519Z,20.60
2018-09-06T04:54:52.760Z,20.40
2018-09-06T04:56:28.743Z,20.30
2018-09-06T04:58:03.908Z,20.30
2018-09-06T04:59:39.125Z,20.60
2018-09-06T05:01:15.764Z,20.90
2018-09-06T05:02:53.985Z,21.20
2018-09-06T05:04:29.675Z,21.50
2018-09-06T05:06:04.907Z,21.50
2018-09-06T05:07:40.128Z,21.60
2018-09-06T05:09:16.186Z,21.80
2018-09-06T05:10:51.692Z,22.00
2018-09-06T05:12:26.883Z,22.10
2018-09-06T05:14:02.464Z,22.10
2018-09-06T05:15:38.565Z,22.10
2018-09-06T05:17:13.738Z,22.00
2018-09-06T05:18:48.963Z,22.00
2018-09-06T05:20:24.215Z,22.00
2018-09-06T05:21:59.607Z,21.80
2018-09-06T05:23:34.763Z,21.80
2018-09-06T05:25:11.273Z,21.80
2018-09-06T05:26:46.526Z,21.70
2018-09-06T05:28:22.001Z,21.70
2018-09-06T05:29:57.256Z,21.80
2018-09-06T05:31:32.746Z,21.90
2018-09-06T05:33:07.603Z,21.80
2018-09-06T05:34:43.251Z,21.60
2018-09-06T05:36:18.588Z,21.20
2018-09-06T05:37:55.416Z,21.00
2018-09-06T05:39:32.494Z,20.60
2018-09-06T05:41:08.392Z,20.30
2018-09-06T05:42:48.321Z,20.40
2018-09-06T05:44:23.513Z,20.80
2018-09-06T05:46:02.802Z,21.10
2018-09-06T05:47:38.616Z,21.30
2018-09-06T05:49:14.743Z,21.20
2018-09-06T05:50:49.940Z,21.30
2018-09-06T05:52:25.093Z,21.20
2018-09-06T05:54:00.665Z,21.10
2018-09-06T05:55:39.680Z,21.10
2018-09-06T05:57:22.602Z,21.10
2018-09-06T05:59:01.792Z,21.00
2018-09-06T06:00:46.456Z,20.80
2018-09-06T06:02:21.862Z,20.90
2018-09-06T06:03:58.423Z,20.90
2018-09-06T06:05:33.632Z,20.80
2018-09-06T06:07:08.843Z,20.80
2018-09-06T06:08:47.026Z,20.30
2018-09-06T06:10:22.321Z,20.20
2018-09-06T06:11:57.604Z,20.40
2018-09-06T06:13:34.704Z,20.50
2018-09-06T06:15:10.259Z,20.50
2018-09-06T06:16:45.609Z,20.50
2018-09-06T06:18:20.813Z,20.40
2018-09-06T06:19:56.617Z,20.30
2018-09-06T06:21:32.653Z,20.50
2018-09-06T06:23:08.642Z,20.30
2018-09-06T06:24:43.888Z,20.20
2018-09-06T06:26:21.505Z,20.20
2018-09-06T06:27:56.729Z,20.30
2018-09-06T06:29:31.953Z,20.20
2018-09-06T06:31:07.420Z,20.00
2018-09-06T06:32:42.707Z,20.00
2018-09-06T06:34:18.947Z,20.10
2018-09-06T06:35:54.397Z,19.90
2018-09-06T06:37:29.654Z,19.80
2018-09-06T06:39:07.775Z,19.70
2018-09-06T06:40:45.295Z,19.90
2018-09-06T06:42:20.843Z,19.90
2018-09-06T06:43:56.132Z,20.30
2018-09-06T06:45:32.168Z,20.20
2018-09-06T06:47:10.733Z,20.10
2018-09-06T06:48:45.918Z,19.90
2018-09-06T06:50:21.333Z,19.80
2018-09-06T06:51:58.501Z,19.80
2018-09-06T06:53:35.240Z,19.80
2018-09-06T06:55:11.053Z,19.80
2018-09-06T06:56:46.313Z,19.70
2018-09-06T06:58:22.176Z,19.90
2018-09-06T06:59:57.486Z,20.40
2018-09-06T07:01:33.096Z,20.70
2018-09-06T07:03:14.770Z,20.80
2018-09-06T07:04:57.893Z,20.60
2018-09-06T07:06:41.020Z,20.40
2018-09-06T07:08:21.345Z,20.10
2018-09-06T07:10:00.890Z,19.90
2018-09-06T07:11:38.005Z,19.80
2018-09-06T07:13:13.539Z,19.70
2018-09-06T07:14:49.574Z,19.50
2018-09-06T07:16:28.283Z,19.40
2018-09-06T07:18:05.472Z,19.30
2018-09-06T07:19:40.809Z,19.30
2018-09-06T07:21:16.218Z,19.20
2018-09-06T07:22:53.193Z,19.10
2018-09-06T07:24:29.626Z,19.20
2018-09-06T07:26:06.537Z,19.40
2018-09-06T07:27:42.829Z,19.60
2018-09-06T07:29:27.821Z,19.70
2018-09-06T07:31:04.835Z,19.60
2018-09-06T07:32:40.125Z,19.40
2018-09-06T07:34:15.394Z,19.30
2018-09-06T07:35:52.541Z,19.50
2018-09-06T07:37:28.687Z,19.80
2018-09-06T07:39:10.483Z,20.10
2018-09-06T07:40:54.394Z,20.40
2018-09-06T07:42:38.814Z,20.40
2018-09-06T07:44:14.192Z,20.40
2018-09-06T07:45:51.931Z,20.50
2018-09-06T07:47:34.555Z,20.70
2018-09-06T07:49:10.230Z,20.80
2018-09-06T07:50:47.114Z,20.60
2018-09-06T07:52:23.965Z,20.30
2018-09-06T07:53:59.515Z,20.00
2018-09-06T07:55:35.259Z,19.80
2018-09-06T07:57:12.247Z,19.70
2018-09-06T07:58:47.783Z,19.80
2018-09-06T08:00:23.415Z,19.90
2018-09-06T08:01:59.300Z,20.30
2018-09-06T08:03:34.715Z,20.70
2018-09-06T08:05:10.054Z,21.00
2018-09-06T08:06:46.048Z,21.20
2018-09-06T08:08:21.319Z,21.60
2018-09-06T08:09:57.146Z,21.90
2018-09-06T08:11:32.466Z,22.10
2018-09-06T08:13:16.754Z,22.30
2018-09-06T08:14:54.277Z,22.30
2018-09-06T08:16:29.845Z,22.20
2018-09-06T08:18:10.457Z,22.20
2018-09-06T08:19:49.897Z,22.30
2018-09-06T08:21:27.974Z,22.10
2018-09-06T08:23:03.558Z,22.40
2018-09-06T08:24:40.104Z,22.50
2018-09-06T08:26:17.618Z,21.90
2018-09-06T08:27:54.607Z,21.80
2018-09-06T08:29:31.715Z,22.00
2018-09-06T08:31:07.173Z,22.10
2018-09-06T08:32:42.467Z,22.40
2018-09-06T08:34:22.537Z,22.00
2018-09-06T08:35:59.271Z,22.10
2018-09-06T08:37:34.507Z,22.40
2018-09-06T08:39:12.806Z,22.50
2018-09-06T08:40:50.222Z,22.50
2018-09-06T08:42:25.474Z,22.70
2018-09-06T08:44:01.509Z,22.90
2018-09-06T08:45:37.678Z,23.10
2018-09-06T08:47:43.690Z,23.10
2018-09-06T08:49:38.097Z,23.00
2018-09-06T08:51:20.575Z,22.70
2018-09-06T08:52:57.045Z,22.50
2018-09-06T08:54:33.307Z,22.10
2018-09-06T08:56:08.691Z,21.90
2018-09-06T08:57:44.565Z,21.70
2018-09-06T08:59:22.177Z,21.60
2018-09-06T09:01:04.838Z,21.80
2018-09-06T09:02:42.500Z,22.20
2018-09-06T09:04:20.325Z,22.50
2018-09-06T09:05:56.310Z,22.40
2018-09-06T09:07:31.808Z,21.90
2018-09-06T09:09:13.193Z,21.30
2018-09-06T09:10:51.401Z,21.10
2018-09-06T09:12:28.243Z,20.90
2018-09-06T09:14:04.114Z,20.70
2018-09-06T09:15:43.297Z,20.60
2018-09-06T09:17:21.113Z,20.60
2018-09-06T09:18:58.596Z,20.60
2018-09-06T09:20:35.835Z,20.70
2018-09-06T09:22:13.615Z,20.70
2018-09-06T09:23:51.782Z,20.60
2018-09-06T09:25:28.369Z,20.50
2018-09-06T09:27:11.977Z,20.60
2018-09-06T09:28:53.392Z,20.70
2018-09-06T09:30:41.041Z,20.90
2018-09-06T09:32:22.483Z,21.00
2018-09-06T09:33:59.812Z,21.10
2018-09-06T09:35:35.265Z,21.50
2018-09-06T09:37:10.811Z,21.70
2018-09-06T09:38:46.504Z,21.80
2018-09-06T09:40:28.612Z,21.90
2018-09-06T09:42:06.397Z,22.30
2018-09-06T09:43:43.334Z,22.50
2018-09-06T09:45:21.551Z,22.50
2018-09-06T09:48:37.411Z,22.70
2018-09-06T09:51:51.189Z,22.70
2018-09-06T09:53:27.625Z,22.70
2018-09-06T09:55:06.550Z,22.60
2018-09-06T09:56:43.483Z,22.30
2018-09-06T09:58:24.507Z,22.20
2018-09-06T10:00:02.239Z,22.00
2018-09-06T10:02:02.020Z,22.10
2018-09-06T10:05:38.241Z,22.20
2018-09-06T10:07:21.528Z,21.90
2018-09-06T10:09:29.932Z,22.20
2018-09-06T10:11:07.191Z,22.50
2018-09-06T10:12:43.473Z,22.90
2018-09-06T10:14:18.945Z,22.90
2018-09-06T10:15:56.591Z,22.90
2018-09-06T10:17:32.053Z,22.80
2018-09-06T10:19:09.724Z,22.50
2018-09-06T10:20:45.894Z,22.10
2018-09-06T10:22:21.913Z,21.90
2018-09-06T10:25:33.591Z,22.10
2018-09-06T10:27:08.910Z,22.40
2018-09-06T10:28:45.187Z,21.90
2018-09-06T10:30:22.319Z,22.00
2018-09-06T10:31:58.239Z,22.10
2018-09-06T10:33:33.591Z,22.60
2018-09-06T10:35:11.389Z,22.80
2018-09-06T10:36:49.314Z,22.70
2018-09-06T10:38:27.529Z,22.60
2018-09-06T10:40:04.046Z,22.40
2018-09-06T10:41:39.419Z,22.30
2018-09-06T10:43:17.291Z,22.20
2018-09-06T10:44:53.776Z,22.00
2018-09-06T10:46:30.043Z,22.00
2018-09-06T10:48:07.717Z,21.90
2018-09-06T10:49:44.676Z,21.80
2018-09-06T10:51:23.595Z,21.70
2018-09-06T10:52:58.831Z,21.90
2018-09-06T10:54:35.465Z,22.00
2018-09-06T10:56:11.630Z,22.20
2018-09-06T10:57:47.892Z,22.20
2018-09-06T10:59:26.972Z,22.00
2018-09-06T11:01:09.170Z,22.20
2018-09-06T11:02:44.542Z,22.40
2018-09-06T11:04:20.199Z,22.30
2018-09-06T11:05:56.922Z,22.40
2018-09-06T11:07:32.434Z,22.50
2018-09-06T11:09:11.156Z,22.40
2018-09-06T11:10:47.875Z,22.20
2018-09-06T11:12:25.592Z,22.20
2018-09-06T11:14:01.655Z,22.50
2018-09-06T11:15:37.213Z,22.50
2018-09-06T11:17:16.325Z,22.60
2018-09-06T11:18:51.754Z,22.40
2018-09-06T11:20:26.990Z,22.60
2018-09-06T11:22:03.653Z,22.80
2018-09-06T11:23:40.755Z,22.70
2018-09-06T11:25:15.993Z,22.40
2018-09-06T11:26:51.783Z,22.50
2018-09-06T11:28:27.759Z,22.50
2018-09-06T11:30:05.167Z,22.30
2018-09-06T11:31:40.769Z,22.40
2018-09-06T11:33:17.806Z,22.90
2018-09-06T11:34:56.337Z,23.20
2018-09-06T11:36:34.077Z,23.40
2018-09-06T11:38:10.257Z,23.10
2018-09-06T11:39:45.470Z,22.70
2018-09-06T11:41:20.718Z,22.30
2018-09-06T11:42:58.034Z,22.20
2018-09-06T11:44:37.580Z,22.50
2018-09-06T11:46:22.354Z,22.70
2018-09-06T11:48:06.773Z,23.10
2018-09-06T11:49:42.467Z,23.60
2018-09-06T11:51:19.603Z,23.50
2018-09-06T11:52:55.390Z,23.10
2018-09-06T11:54:30.697Z,23.10
2018-09-06T11:56:06.665Z,23.20
2018-09-06T11:57:41.995Z,23.70
2018-09-06T11:59:18.526Z,23.90
2018-09-06T12:00:53.978Z,23.60
2018-09-06T12:02:30.639Z,23.70
2018-09-06T12:04:06.077Z,23.80
2018-09-06T12:05:41.701Z,23.90
2018-09-06T12:07:17.440Z,23.90
2018-09-06T12:08:55.434Z,24.10
2018-09-06T12:10:31.640Z,24.00
2018-09-06T12:12:08.525Z,23.20
2018-09-06T12:13:44.478Z,22.80
2018-09-06T12:15:21.562Z,22.50
2018-09-06T12:16:56.938Z,22.80
2018-09-06T12:18:32.339Z,23.20
2018-09-06T12:20:08.421Z,23.20
2018-09-06T12:21:44.068Z,23.60
2018-09-06T12:23:20.147Z,23.90
2018-09-06T12:24:55.517Z,23.90
2018-09-06T12:26:30.864Z,24.00
2018-09-06T12:28:07.075Z,23.70
2018-09-06T12:29:42.481Z,23.70
2018-09-06T12:31:18.068Z,23.20
2018-09-06T12:32:53.546Z,23.00
2018-09-06T12:34:29.519Z,23.10
2018-09-06T12:36:05.904Z,23.40
2018-09-06T12:37:41.214Z,23.50
2018-09-06T12:39:17.314Z,23.30
2018-09-06T12:40:53.519Z,23.50
2018-09-06T12:42:30.177Z,23.30
2018-09-06T12:44:08.675Z,23.00
2018-09-06T12:45:44.267Z,22.80
2018-09-06T12:47:21.080Z,22.80
2018-09-06T12:49:00.254Z,22.60
2018-09-06T12:50:36.374Z,22.40
2018-09-06T12:52:15.891Z,22.90
2018-09-06T12:53:51.696Z,23.50
2018-09-06T12:55:26.926Z,23.90
2018-09-06T12:57:04.512Z,24.20
2018-09-06T12:58:41.210Z,24.30
2018-09-06T13:00:24.818Z,24.40
2018-09-06T13:02:03.749Z,24.40
2018-09-06T13:03:39.643Z,24.40
2018-09-06T13:05:19.781Z,24.20
2018-09-06T13:06:59.900Z,24.20
2018-09-06T13:08:36.534Z,23.90
2018-09-06T13:10:15.739Z,24.00
2018-09-06T13:11:54.189Z,23.70
2018-09-06T13:13:31.477Z,23.30
2018-09-06T13:15:15.593Z,23.40
2018-09-06T13:16:53.114Z,23.30
2018-09-06T13:18:30.236Z,23.50
2018-09-06T13:20:11.563Z,24.00
2018-09-06T13:21:47.994Z,24.20
2018-09-06T13:23:23.438Z,23.80
2018-09-06T13:24:59.461Z,23.60
2018-09-06T13:26:36.273Z,23.40
2018-09-06T13:28:11.667Z,23.50
2018-09-06T13:29:47.047Z,24.00
2018-09-06T13:33:12.442Z,23.60
2018-09-06T13:34:49.904Z,23.60
2018-09-06T13:36:25.313Z,23.50
2018-09-06T13:38:02.292Z,23.90
2018-09-06T13:39:38.613Z,24.20
2018-09-06T13:41:14.535Z,24.40
2018-09-06T13:42:50.466Z,24.50
2018-09-06T13:44:26.731Z,24.40
2018-09-06T13:46:02.208Z,24.40
2018-09-06T13:47:39.191Z,24.40
2018-09-06T13:49:15.342Z,24.50
2018-09-06T13:50:50.642Z,24.50
2018-09-06T13:52:31.987Z,24.40
2018-09-06T13:54:07.862Z,24.30
2018-09-06T13:55:43.718Z,24.20
2018-09-06T13:57:23.708Z,23.90
2018-09-06T13:59:03.197Z,23.20
2018-09-06T14:00:44.598Z,22.60
2018-09-06T14:02:20.849Z,22.50
2018-09-06T14:03:58.874Z,22.50
2018-09-06T14:05:35.990Z,22.10
2018-09-06T14:07:15.619Z,21.90
2018-09-06T14:08:52.639Z,21.80
2018-09-06T14:10:32.134Z,21.80
2018-09-06T14:12:08.330Z,21.90
2018-09-06T14:13:45.244Z,21.80
2018-09-06T14:15:23.544Z,21.70
2018-09-06T14:16:58.766Z,21.60
2018-09-06T14:18:34.520Z,21.60
2018-09-06T14:20:11.373Z,21.60
2018-09-06T14:21:47.207Z,21.60
2018-09-06T14:23:29.025Z,21.60
2018-09-06T14:25:04.767Z,21.70
2018-09-06T14:26:42.415Z,21.70
2018-09-06T14:28:21.037Z,21.70
2018-09-06T14:29:56.398Z,21.70
2018-09-06T14:31:32.052Z,21.70
2018-09-06T14:33:10.008Z,21.70
2018-09-06T14:34:46.731Z,21.80
2018-09-06T14:36:32.429Z,21.80
2018-09-06T14:38:12.097Z,21.80
2018-09-06T14:39:49.873Z,21.90
2018-09-06T14:41:28.687Z,22.10
2018-09-06T14:43:05.781Z,22.20
2018-09-06T14:44:41.407Z,22.30
2018-09-06T14:46:17.975Z,22.20
2018-09-06T14:47:53.210Z,22.10
2018-09-06T14:49:29.202Z,22.10
2018-09-06T14:51:06.645Z,22.10
2018-09-06T14:52:43.615Z,22.10
2018-09-06T14:54:18.981Z,22.20
2018-09-06T14:55:55.151Z,22.30
2018-09-06T14:57:32.563Z,22.50
2018-09-06T14:59:07.929Z,22.90
2018-09-06T15:00:43.520Z,23.40
2018-09-06T15:02:22.165Z,23.60
2018-09-06T15:03:58.529Z,23.90
2018-09-06T15:05:37.278Z,24.30
2018-09-06T15:07:12.511Z,24.40
2018-09-06T15:08:47.801Z,24.40
2018-09-06T15:10:23.682Z,24.60
2018-09-06T15:11:59.565Z,24.60
2018-09-06T15:13:37.325Z,24.70
2018-09-06T15:15:14.837Z,24.70
2018-09-06T15:16:51.581Z,24.40
2018-09-06T15:18:28.005Z,24.40
2018-09-06T15:20:03.615Z,24.60
2018-09-06T15:21:38.838Z,24.60
2018-09-06T15:23:15.688Z,24.60
2018-09-06T15:24:54.442Z,25.00
2018-09-06T15:26:30.564Z,25.10
2018-09-06T15:28:09.935Z,25.20
2018-09-06T15:29:46.709Z,25.40
2018-09-06T15:31:22.530Z,25.40
2018-09-06T15:32:59.877Z,25.40
2018-09-06T15:34:37.681Z,25.20
2018-09-06T15:36:21.671Z,25.10
2018-09-06T15:37:57.959Z,25.20
2018-09-06T15:39:34.509Z,25.10
2018-09-06T15:41:10.230Z,25.00
2018-09-06T15:42:46.319Z,25.00
2018-09-06T15:44:22.057Z,24.90
2018-09-06T15:47:35.363Z,25.10
2018-09-06T15:49:10.772Z,25.50
2018-09-06T15:50:46.249Z,25.30
2018-09-06T15:52:21.598Z,25.30
2018-09-06T15:53:57.177Z,25.20
2018-09-06T15:55:32.935Z,25.00
2018-09-06T15:57:10.976Z,25.00
2018-09-06T15:58:50.890Z,24.90
2018-09-06T16:00:26.781Z,24.80
2018-09-06T16:02:01.986Z,24.90
2018-09-06T16:03:37.860Z,25.00
2018-09-06T16:05:14.594Z,25.10
2018-09-06T16:06:50.260Z,24.90
2018-09-06T16:08:26.530Z,24.70
2018-09-06T16:10:03.324Z,24.60
2018-09-06T16:11:40.149Z,24.60
2018-09-06T16:13:16.041Z,24.40
2018-09-06T16:14:52.751Z,24.30
2018-09-06T16:16:28.490Z,24.20
2018-09-06T16:18:04.650Z,24.20
2018-09-06T16:19:41.153Z,24.30
2018-09-06T16:21:16.546Z,24.20
2018-09-06T16:22:51.949Z,24.20
2018-09-06T16:24:27.652Z,24.40
2018-09-06T16:26:03.553Z,24.30
2018-09-06T16:27:39.617Z,24.10
2018-09-06T16:29:14.933Z,23.80
2018-09-06T16:30:50.689Z,23.80
2018-09-06T16:32:26.391Z,23.70
2018-09-06T16:34:01.677Z,24.00
2018-09-06T16:35:43.123Z,24.00
2018-09-06T16:37:30.629Z,24.10
2018-09-06T16:39:15.559Z,24.40
2018-09-06T16:40:50.985Z,24.30
2018-09-06T16:42:26.604Z,24.30
2018-09-06T16:44:03.514Z,24.30
2018-09-06T16:45:39.815Z,24.10
2018-09-06T16:47:15.144Z,24.00
2018-09-06T16:48:50.460Z,23.90
2018-09-06T16:50:26.517Z,23.70
2018-09-06T16:52:03.880Z,23.70
2018-09-06T16:53:39.531Z,23.60
2018-09-06T16:55:15.090Z,23.70
2018-09-06T16:56:51.197Z,23.70
2018-09-06T16:58:28.279Z,23.70
2018-09-06T17:00:10.024Z,23.60
2018-09-06T17:01:45.594Z,23.60
2018-09-06T17:03:21.954Z,23.60
2018-09-06T17:04:58.422Z,23.70
2018-09-06T17:06:36.150Z,23.60
2018-09-06T17:08:11.764Z,23.60
2018-09-06T17:09:47.293Z,23.60
2018-09-06T17:11:23.085Z,23.60
2018-09-06T17:12:59.824Z,23.60
2018-09-06T17:14:35.269Z,23.50
2018-09-06T17:16:10.916Z,23.40
2018-09-06T17:17:49.367Z,23.50
2018-09-06T17:19:26.676Z,23.40
2018-09-06T17:21:03.363Z,23.40
2018-09-06T17:22:46.729Z,23.40
2018-09-06T17:24:31.001Z,23.30
2018-09-06T17:26:21.290Z,23.30
2018-09-06T17:27:58.516Z,23.30
2018-09-06T17:29:39.832Z,23.30
2018-09-06T17:31:19.060Z,23.20
2018-09-06T17:32:55.485Z,23.10
2018-09-06T17:34:32.274Z,22.90
2018-09-06T17:36:08.747Z,22.80
2018-09-06T17:37:44.617Z,22.80
2018-09-06T17:39:20.251Z,22.80
2018-09-06T17:40:59.570Z,22.70
2018-09-06T17:42:35.534Z,22.70
2018-09-06T17:44:11.359Z,22.60
2018-09-06T17:45:48.554Z,22.60
2018-09-06T17:47:25.526Z,22.60
2018-09-06T17:49:02.283Z,22.70
2018-09-06T17:50:38.397Z,22.60
2018-09-06T17:52:14.459Z,22.70
2018-09-06T17:53:53.029Z,22.80
2018-09-06T17:55:29.523Z,22.70
2018-09-06T17:57:09.629Z,22.70
2018-09-06T17:58:54.917Z,22.60
2018-09-06T18:00:31.930Z,22.60
2018-09-06T18:02:08.968Z,22.70
2018-09-06T18:03:47.452Z,22.70
2018-09-06T18:05:25.725Z,22.70
2018-09-06T18:07:01.503Z,22.60
2018-09-06T18:08:37.186Z,22.40
2018-09-06T18:10:12.434Z,22.10
2018-09-06T18:11:54.187Z,22.00
2018-09-06T18:13:30.825Z,22.00
2018-09-06T18:15:09.521Z,21.90
2018-09-06T18:16:49.642Z,21.90
2018-09-06T18:18:26.556Z,21.90
2018-09-06T18:20:06.298Z,21.70
2018-09-06T18:21:43.071Z,21.50
2018-09-06T18:23:21.675Z,21.50
2018-09-06T18:24:58.246Z,21.40
2018-09-06T18:26:35.003Z,21.40
2018-09-06T18:28:10.397Z,21.30
2018-09-06T18:29:46.651Z,21.30
2018-09-06T18:31:26.545Z,21.20
2018-09-06T18:33:04.966Z,21.10
2018-09-06T18:34:40.835Z,21.10
2018-09-06T18:36:19.497Z,21.10
2018-09-06T18:37:56.276Z,21.10
2018-09-06T18:39:33.594Z,21.10
2018-09-06T18:41:10.873Z,21.20
2018-09-06T18:42:48.330Z,21.10
2018-09-06T18:44:23.670Z,21.10
2018-09-06T18:46:00.214Z,21.20
2018-09-06T18:47:36.898Z,21.20
2018-09-06T18:49:13.132Z,21.20
2018-09-06T18:50:49.521Z,21.20
2018-09-06T18:52:24.966Z,21.20
2018-09-06T18:54:02.528Z,21.20
2018-09-06T18:55:39.945Z,21.30
2018-09-06T18:57:16.316Z,21.30
2018-09-06T18:58:51.669Z,21.40
2018-09-06T19:00:28.753Z,21.40
2018-09-06T19:02:05.106Z,21.40
2018-09-06T19:03:41.088Z,21.40
2018-09-06T19:05:19.394Z,21.40
2018-09-06T19:07:14.811Z,21.30
2018-09-06T19:08:50.799Z,21.10
2018-09-06T19:10:29.507Z,21.10
2018-09-06T19:12:12.113Z,21.00
2018-09-06T19:13:52.104Z,20.90
2018-09-06T19:15:28.005Z,20.90
2018-09-06T19:17:05.174Z,20.80
2018-09-06T19:18:43.639Z,20.80
2018-09-06T19:20:19.943Z,20.90
2018-09-06T19:21:57.932Z,21.00
2018-09-06T19:23:36.321Z,21.10
2018-09-06T19:25:22.497Z,21.10
2018-09-06T19:27:11.859Z,21.20
2018-09-06T19:28:49.034Z,21.20
2018-09-06T19:30:28.216Z,21.30
2018-09-06T19:32:05.418Z,21.20
2018-09-06T19:33:41.433Z,21.20
2018-09-06T19:35:17.438Z,21.20
2018-09-06T19:37:07.806Z,21.10
2018-09-06T19:39:01.706Z,21.10
2018-09-06T19:40:44.171Z,21.20
2018-09-06T19:42:24.088Z,21.10
2018-09-06T19:44:03.620Z,21.20
2018-09-06T19:45:40.460Z,21.20
2018-09-06T19:47:17.537Z,21.10
2018-09-06T19:48:54.362Z,21.10
2018-09-06T19:50:30.528Z,21.10
2018-09-06T19:52:06.852Z,20.90
2018-09-06T19:53:42.404Z,20.90
2018-09-06T19:55:18.647Z,20.90
2018-09-06T19:56:58.456Z,20.90
2018-09-06T19:58:35.292Z,21.00
2018-09-06T20:00:19.600Z,20.90
2018-09-06T20:01:58.503Z,20.90
2018-09-06T20:03:40.050Z,21.00
2018-09-06T20:05:17.872Z,21.10
2018-09-06T20:06:54.280Z,21.20
2018-09-06T20:08:32.571Z,21.20
2018-09-06T20:10:10.124Z,21.10
2018-09-06T20:11:49.404Z,21.10
2018-09-06T20:13:26.550Z,21.10
2018-09-06T20:15:09.463Z,21.10
2018-09-06T20:16:48.635Z,21.20
2018-09-06T20:18:24.533Z,21.20
2018-09-06T20:20:02.262Z,21.20
2018-09-06T20:21:40.306Z,21.20
2018-09-06T20:23:19.981Z,21.20
2018-09-06T20:25:05.079Z,21.20
2018-09-06T20:26:45.219Z,21.20
2018-09-06T20:28:22.949Z,21.20
2018-09-06T20:30:01.197Z,21.10
2018-09-06T20:31:37.797Z,21.20
2018-09-06T20:33:20.164Z,21.20
2018-09-06T20:34:57.673Z,21.00
2018-09-06T20:36:37.581Z,20.90
2018-09-06T20:38:13.265Z,20.70
2018-09-06T20:39:54.147Z,20.90
2018-09-06T20:41:31.309Z,21.10
2018-09-06T20:43:06.707Z,21.10
2018-09-06T20:44:43.726Z,21.10
2018-09-06T20:46:19.525Z,21.10
2018-09-06T20:47:58.645Z,21.00
2018-09-06T20:49:36.603Z,20.90
2018-09-06T20:51:11.924Z,20.80
2018-09-06T20:52:51.221Z,20.90
2018-09-06T20:54:27.267Z,20.90
2018-09-06T20:56:02.584Z,20.90
2018-09-06T20:57:37.912Z,21.00
2018-09-06T20:59:14.880Z,20.90
2018-09-06T21:00:55.530Z,20.90
2018-09-06T21:02:35.978Z,20.90